Time;durP1;ratioP1;P1;durP2;ratioP2;P2;SDS_P1;SDS_P2;PMS_P1;PMS_P2;Temp;Humidity;BMP_temperature;BMP_pressure;BME280_temperature;BME280_humidity;BME280_pressure;Samples;Min_cycle;Max_cycle;Signal;HPM_P1;HPM_P2
2022/05/24 00:01:34;;;;;;;10.83;9.93;;;;;;;;;;5072564;28;20206;-74
2022/05/24 00:04:02;;;;;;;11.53;10.53;;;;;;;;;;5066788;28;20215;-73
2022/05/24 00:06:46;;;;;;;12.57;11.37;;;;;;;;;;5067816;28;20545;-73
2022/05/24 00:09:14;;;;;;;13.63;12.43;;;;;;;;;;5068154;28;20279;-75
2022/05/24 00:11:44;;;;;;;13.20;12.03;;;;;;;;;;5072259;28;20206;-74
2022/05/24 00:14:13;;;;;;;12.97;11.67;;;;;;;;;;5057713;28;20194;-73
2022/05/24 00:16:41;;;;;;;12.30;11.20;;;;;;;;;;5071158;28;20260;-74
2022/05/24 00:19:12;;;;;;;11.33;10.23;;;;;;;;;;5072742;28;20261;-75
2022/05/24 00:21:40;;;;;;;11.70;10.50;;;;;;;;;;5075969;28;20198;-76
2022/05/24 00:24:09;;;;;;;11.77;10.50;;;;;;;;;;5076112;28;20653;-74
2022/05/24 00:26:40;;;;;;;11.13;10.13;;;;;;;;;;5075612;28;20661;-74
2022/05/24 00:29:11;;;;;;;11.47;10.27;;;;;;;;;;5075749;28;20230;-73
2022/05/24 00:31:39;;;;;;;11.20;10.10;;;;;;;;;;5074233;28;20224;-73
2022/05/24 00:34:10;;;;;;;11.20;10.20;;;;;;;;;;5069362;28;20194;-73
2022/05/24 00:36:39;;;;;;;11.80;10.57;;;;;;;;;;5075496;28;20206;-73
2022/05/24 00:39:07;;;;;;;12.73;11.23;;;;;;;;;;5075392;28;20630;-73
2022/05/24 00:41:38;;;;;;;12.90;11.70;;;;;;;;;;5076032;28;20214;-72
2022/05/24 00:44:10;;;;;;;13.27;11.83;;;;;;;;;;5071752;28;20218;-72
2022/05/24 00:46:44;;;;;;;13.50;12.20;;;;;;;;;;5068601;28;20214;-73
2022/05/24 00:49:15;;;;;;;12.40;11.20;;;;;;;;;;5062250;28;20214;-73
2022/05/24 00:51:46;;;;;;;12.53;11.10;;;;;;;;;;5075303;28;20203;-73
2022/05/24 00:54:14;;;;;;;14.40;11.23;;;;;;;;;;5070977;28;20657;-73
2022/05/24 00:56:50;;;;;;;10.63;9.63;;;;;;;;;;5074952;28;20199;-73
2022/05/24 00:59:25;;;;;;;9.80;8.90;;;;;;;;;;5070829;28;20209;-73
2022/05/24 01:01:56;;;;;;;8.40;7.60;;;;;;;;;;5072885;28;20201;-72
2022/05/24 01:04:25;;;;;;;9.20;7.80;;;;;;;;;;5074047;28;20222;-73
2022/05/24 01:06:53;;;;;;;8.63;7.83;;;;;;;;;;5074147;28;20203;-73
2022/05/24 01:09:24;;;;;;;7.20;6.50;;;;;;;;;;5075345;28;20210;-74
2022/05/24 01:11:55;;;;;;;6.73;6.13;;;;;;;;;;5073062;28;20206;-73
2022/05/24 01:14:26;;;;;;;7.80;5.97;;;;;;;;;;5073381;28;20195;-73
2022/05/24 01:16:57;;;;;;;6.83;5.50;;;;;;;;;;5071364;28;20286;-73
2022/05/24 01:19:33;;;;;;;6.07;5.53;;;;;;;;;;5075137;28;20665;-73
2022/05/24 01:22:09;;;;;;;7.30;5.20;;;;;;;;;;5071589;28;20209;-74
2022/05/24 01:24:49;;;;;;;6.90;4.93;;;;;;;;;;5070018;28;20218;-73
2022/05/24 01:27:21;;;;;;;7.27;5.77;;;;;;;;;;5073617;28;20750;-73
2022/05/24 01:29:49;;;;;;;6.83;5.57;;;;;;;;;;5070485;28;20252;-73
2022/05/24 01:37:52;;;;;;;6.23;5.63;;;;;;;;;;5072854;28;20629;-73
2022/05/24 01:40:21;;;;;;;7.33;5.60;;;;;;;;;;5066943;28;20206;-73
2022/05/24 01:42:50;;;;;;;5.50;4.97;;;;;;;;;;5072169;28;20214;-73
2022/05/24 01:45:22;;;;;;;6.90;5.20;;;;;;;;;;5072566;28;20256;-73
2022/05/24 01:47:57;;;;;;;5.93;5.33;;;;;;;;;;5073445;28;20222;-73
2022/05/24 01:50:27;;;;;;;5.70;5.20;;;;;;;;;;5073751;28;20255;-73
2022/05/24 01:52:57;;;;;;;5.53;5.03;;;;;;;;;;5072500;28;20211;-73
2022/05/24 01:55:27;;;;;;;5.70;4.77;;;;;;;;;;5069870;28;20206;-73
2022/05/24 01:57:59;;;;;;;5.80;5.30;;;;;;;;;;5073284;28;20624;-73
2022/05/24 02:00:28;;;;;;;5.90;5.27;;;;;;;;;;5066475;28;20209;-74
2022/05/24 02:02:56;;;;;;;7.77;5.07;;;;;;;;;;5072239;28;20281;-72
2022/05/24 02:05:30;;;;;;;7.00;4.57;;;;;;;;;;5071700;28;20233;-72
2022/05/24 02:07:59;;;;;;;5.67;4.43;;;;;;;;;;5073645;28;20289;-74
2022/05/24 02:10:28;;;;;;;5.33;4.43;;;;;;;;;;5066530;28;20597;-73
2022/05/24 02:12:59;;;;;;;4.40;4.00;;;;;;;;;;5072815;28;20199;-73
2022/05/24 02:15:29;;;;;;;5.73;4.37;;;;;;;;;;5071396;28;20336;-73
2022/05/24 02:18:00;;;;;;;4.10;3.70;;;;;;;;;;5072041;28;20604;-73
2022/05/24 02:20:30;;;;;;;5.10;3.70;;;;;;;;;;5070420;28;20280;-73
2022/05/24 02:22:59;;;;;;;4.37;3.57;;;;;;;;;;5071071;28;20210;-73
2022/05/24 02:25:30;;;;;;;3.97;3.57;;;;;;;;;;5072155;28;20284;-73
2022/05/24 02:28:00;;;;;;;3.90;3.50;;;;;;;;;;5072217;28;20226;-73
2022/05/24 02:30:30;;;;;;;5.60;3.70;;;;;;;;;;5065840;28;20210;-73
2022/05/24 02:32:58;;;;;;;5.10;3.70;;;;;;;;;;5072271;28;20260;-73
2022/05/24 02:35:27;;;;;;;4.27;3.50;;;;;;;;;;5068405;28;20194;-72
2022/05/24 02:37:56;;;;;;;3.80;3.50;;;;;;;;;;5069803;28;20279;-73
2022/05/24 02:46:55;;;;;;;5.27;3.90;;;;;;;;;;5101678;22;20329;-73
2022/05/24 02:49:25;;;;;;;4.27;3.70;;;;;;;;;;5043071;28;20207;-72
2022/05/24 02:51:54;;;;;;;4.53;3.60;;;;;;;;;;5051253;28;20735;-73
2022/05/24 02:54:22;;;;;;;4.03;3.53;;;;;;;;;;5050712;28;20203;-73
2022/05/24 02:56:50;;;;;;;4.83;4.07;;;;;;;;;;5052964;28;20261;-73
2022/05/24 02:59:19;;;;;;;5.10;4.60;;;;;;;;;;5053235;28;20207;-74
2022/05/24 03:01:47;;;;;;;6.47;5.50;;;;;;;;;;5051267;28;20207;-73
2022/05/24 03:04:16;;;;;;;6.73;5.40;;;;;;;;;;5051439;28;20592;-73
2022/05/24 03:09:35;;;;;;;6.73;6.13;;;;;;;;;;5039604;28;20203;-73
2022/05/24 03:14:50;;;;;;;10.50;8.23;;;;;;;;;;5051325;28;20203;-73
2022/05/24 03:17:19;;;;;;;9.03;8.13;;;;;;;;;;5051544;28;20313;-72
2022/05/24 03:19:49;;;;;;;10.03;9.03;;;;;;;;;;5050299;28;20704;-73
2022/05/24 03:22:20;;;;;;;9.77;8.87;;;;;;;;;;5050153;28;20206;-72
2022/05/24 03:24:50;;;;;;;10.13;9.13;;;;;;;;;;5051402;28;20222;-72
2022/05/24 03:27:19;;;;;;;11.10;10.00;;;;;;;;;;5049236;28;20226;-72
2022/05/24 03:29:48;;;;;;;12.13;10.30;;;;;;;;;;5053031;28;20199;-73
2022/05/24 03:32:17;;;;;;;12.20;10.90;;;;;;;;;;5049530;28;20207;-72
2022/05/24 03:34:46;;;;;;;12.90;11.60;;;;;;;;;;5051225;28;20206;-73
2022/05/24 03:37:16;;;;;;;12.73;11.37;;;;;;;;;;5052596;28;20227;-73
2022/05/24 03:39:46;;;;;;;12.50;11.30;;;;;;;;;;5053031;28;20202;-73
2022/05/24 03:42:14;;;;;;;13.67;11.70;;;;;;;;;;5050144;28;20252;-73
2022/05/24 03:44:42;;;;;;;12.97;11.50;;;;;;;;;;5051771;28;20304;-73
2022/05/24 03:47:11;;;;;;;12.87;11.47;;;;;;;;;;5051861;28;20207;-73
2022/05/24 03:49:40;;;;;;;14.03;11.93;;;;;;;;;;5052734;28;20203;-73
2022/05/24 03:52:08;;;;;;;13.47;12.13;;;;;;;;;;5050546;28;20209;-73
2022/05/24 03:54:37;;;;;;;13.23;11.83;;;;;;;;;;5050225;28;20195;-72
2022/05/24 03:59:53;;;;;;;14.33;12.70;;;;;;;;;;5052343;28;20206;-72
2022/05/24 04:02:21;;;;;;;14.47;12.93;;;;;;;;;;5051207;28;20207;-73
2022/05/24 04:04:50;;;;;;;14.73;13.17;;;;;;;;;;5052770;28;20636;-72
2022/05/24 04:07:18;;;;;;;15.17;13.70;;;;;;;;;;5051604;28;20230;-73
2022/05/24 04:09:47;;;;;;;14.70;13.30;;;;;;;;;;5051760;28;20550;-72
2022/05/24 04:12:16;;;;;;;15.93;14.23;;;;;;;;;;5048825;28;20261;-72
2022/05/24 04:14:45;;;;;;;15.03;13.43;;;;;;;;;;5049564;28;20199;-73
2022/05/24 04:17:14;;;;;;;17.50;14.00;;;;;;;;;;5051164;28;20223;-72
2022/05/24 04:19:43;;;;;;;16.83;15.10;;;;;;;;;;5048692;28;20611;-73
2022/05/24 04:22:11;;;;;;;16.67;15.00;;;;;;;;;;5050319;28;20195;-73
2022/05/24 04:24:39;;;;;;;17.77;15.87;;;;;;;;;;5051345;28;20202;-72
2022/05/24 04:27:08;;;;;;;18.87;16.93;;;;;;;;;;5049511;28;20199;-72
2022/05/24 04:29:39;;;;;;;17.57;15.73;;;;;;;;;;5052358;28;20716;-72
2022/05/24 04:32:08;;;;;;;18.97;17.03;;;;;;;;;;5051311;28;20207;-72
2022/05/24 04:34:37;;;;;;;19.70;17.77;;;;;;;;;;5050762;28;20646;-72
2022/05/24 04:37:07;;;;;;;20.23;18.13;;;;;;;;;;5051896;28;20207;-72
2022/05/24 04:39:35;;;;;;;20.73;18.53;;;;;;;;;;5051214;28;20264;-73
2022/05/24 04:44:53;;;;;;;23.97;19.00;;;;;;;;;;5049223;28;20203;-73
2022/05/24 04:47:22;;;;;;;22.70;18.93;;;;;;;;;;5049886;28;20685;-72
2022/05/24 04:49:53;;;;;;;23.33;20.90;;;;;;;;;;5050470;28;20654;-73
2022/05/24 04:52:23;;;;;;;23.33;20.83;;;;;;;;;;5050294;28;20218;-73
2022/05/24 04:54:52;;;;;;;23.00;20.13;;;;;;;;;;5050206;28;20681;-72
2022/05/24 04:57:21;;;;;;;21.87;19.73;;;;;;;;;;5051287;28;20698;-72
2022/05/24 04:59:52;;;;;;;23.23;20.87;;;;;;;;;;5050408;28;20204;-73
2022/05/24 05:02:21;;;;;;;22.63;20.23;;;;;;;;;;5052803;28;20207;-72
2022/05/24 05:04:49;;;;;;;24.73;21.23;;;;;;;;;;5055786;28;20712;-72
2022/05/24 05:07:20;;;;;;;26.70;22.10;;;;;;;;;;5048277;28;20223;-72
2022/05/24 05:09:50;;;;;;;23.63;21.23;;;;;;;;;;5053669;28;20689;-73
2022/05/24 05:12:19;;;;;;;23.00;20.67;;;;;;;;;;5050490;28;20601;-72
2022/05/24 05:14:48;;;;;;;22.53;20.07;;;;;;;;;;5050398;28;20226;-72
2022/05/24 05:17:19;;;;;;;24.20;21.67;;;;;;;;;;5051408;28;20318;-72
2022/05/24 05:19:47;;;;;;;22.97;20.77;;;;;;;;;;5067251;28;20289;-72
2022/05/24 05:22:21;;;;;;;22.83;20.70;;;;;;;;;;5054635;28;20203;-73
2022/05/24 05:24:49;;;;;;;26.27;23.57;;;;;;;;;;5054981;28;20199;-71
2022/05/24 05:27:18;;;;;;;28.50;25.60;;;;;;;;;;5052136;28;20227;-72
2022/05/24 05:32:34;;;;;;;29.53;26.33;;;;;;;;;;5048936;28;20608;-72
2022/05/24 05:35:02;;;;;;;30.60;27.30;;;;;;;;;;5053348;28;20207;-72
2022/05/24 05:37:32;;;;;;;32.33;28.83;;;;;;;;;;5053512;28;20713;-73
2022/05/24 05:40:02;;;;;;;33.50;29.90;;;;;;;;;;5053294;28;20257;-72
2022/05/24 05:42:30;;;;;;;32.63;28.63;;;;;;;;;;5053708;28;20211;-72
2022/05/24 05:45:00;;;;;;;33.60;30.03;;;;;;;;;;5054679;28;20261;-71
2022/05/24 05:47:28;;;;;;;33.43;29.83;;;;;;;;;;5054487;28;20259;-73
2022/05/24 05:49:58;;;;;;;34.67;31.03;;;;;;;;;;5054327;28;20207;-72
2022/05/24 05:52:26;;;;;;;33.93;30.40;;;;;;;;;;5048030;28;20256;-72
2022/05/24 05:54:54;;;;;;;33.33;29.80;;;;;;;;;;5054389;28;20215;-73
2022/05/24 05:57:23;;;;;;;33.80;30.20;;;;;;;;;;5055113;28;20273;-73
2022/05/24 05:59:53;;;;;;;33.57;29.87;;;;;;;;;;5054165;28;20203;-71
2022/05/24 06:02:21;;;;;;;33.23;29.73;;;;;;;;;;5054246;28;20207;-72
2022/05/24 06:04:49;;;;;;;31.33;28.13;;;;;;;;;;5054362;28;20214;-73
2022/05/24 06:07:22;;;;;;;33.20;29.60;;;;;;;;;;5053732;28;20658;-72
2022/05/24 06:09:50;;;;;;;31.50;28.20;;;;;;;;;;5053690;28;20211;-72
2022/05/24 06:12:19;;;;;;;31.77;28.57;;;;;;;;;;5052015;28;20214;-72
2022/05/24 06:14:47;;;;;;;33.33;29.83;;;;;;;;;;5052948;28;20203;-73
2022/05/24 06:17:24;;;;;;;29.60;26.50;;;;;;;;;;5053598;28;20265;-71
2022/05/24 06:19:53;;;;;;;29.67;26.67;;;;;;;;;;5054340;28;20256;-72
2022/05/24 06:22:22;;;;;;;29.07;26.20;;;;;;;;;;5054573;28;20241;-72
2022/05/24 06:24:51;;;;;;;28.50;25.57;;;;;;;;;;5054384;28;20611;-72
2022/05/24 06:27:21;;;;;;;27.53;24.83;;;;;;;;;;5054005;28;20288;-72
2022/05/24 06:29:50;;;;;;;26.67;23.97;;;;;;;;;;5054176;28;20203;-72
2022/05/24 06:32:18;;;;;;;26.57;23.87;;;;;;;;;;5053173;28;20222;-71
2022/05/24 06:34:48;;;;;;;24.93;22.33;;;;;;;;;;5053553;28;20202;-72
2022/05/24 06:37:18;;;;;;;26.07;23.57;;;;;;;;;;5042853;28;20256;-72
2022/05/24 06:39:48;;;;;;;25.07;22.57;;;;;;;;;;5055136;28;20198;-72
2022/05/24 06:42:16;;;;;;;25.63;23.13;;;;;;;;;;5053656;28;20631;-72
2022/05/24 06:44:45;;;;;;;24.23;21.83;;;;;;;;;;5053756;28;20735;-72
2022/05/24 06:47:14;;;;;;;22.63;20.47;;;;;;;;;;5052162;28;20231;-73
2022/05/24 06:49:48;;;;;;;21.93;19.70;;;;;;;;;;5053561;28;20271;-72
2022/05/24 06:52:17;;;;;;;20.17;18.17;;;;;;;;;;5052937;28;20211;-72
2022/05/24 06:54:45;;;;;;;19.70;17.80;;;;;;;;;;5053145;28;20280;-72
2022/05/24 06:57:16;;;;;;;19.23;17.37;;;;;;;;;;5053238;28;20242;-72
2022/05/24 07:02:31;;;;;;;18.80;17.10;;;;;;;;;;5052031;28;20554;-72
2022/05/24 07:05:00;;;;;;;21.13;18.30;;;;;;;;;;5052866;28;20192;-72
2022/05/24 07:07:32;;;;;;;20.43;17.47;;;;;;;;;;5047041;28;20230;-72
2022/05/24 07:10:01;;;;;;;18.73;16.93;;;;;;;;;;5038167;28;20207;-73
2022/05/24 07:12:35;;;;;;;18.97;17.17;;;;;;;;;;5053378;28;20236;-72
2022/05/24 07:15:04;;;;;;;18.70;16.93;;;;;;;;;;5053022;28;20203;-71
2022/05/24 07:17:32;;;;;;;18.53;16.73;;;;;;;;;;5053263;28;20226;-72
2022/05/24 07:20:01;;;;;;;19.03;17.13;;;;;;;;;;5052006;28;20204;-72
2022/05/24 07:22:29;;;;;;;17.73;16.13;;;;;;;;;;5053598;28;20214;-72
2022/05/24 07:24:58;;;;;;;18.23;16.53;;;;;;;;;;5052427;28;20203;-72
2022/05/24 07:27:26;;;;;;;18.43;16.63;;;;;;;;;;5051652;28;20273;-73
2022/05/24 07:29:56;;;;;;;17.40;15.53;;;;;;;;;;5051712;28;20695;-73
2022/05/24 07:32:24;;;;;;;16.10;14.43;;;;;;;;;;5053041;28;20217;-74
2022/05/24 07:34:53;;;;;;;16.60;15.10;;;;;;;;;;5052431;28;20199;-74
2022/05/24 07:37:22;;;;;;;16.37;14.67;;;;;;;;;;5052553;28;20698;-74
2022/05/24 07:48:13;;;;;;;14.07;12.70;;;;;;;;;;5044847;28;20242;-73
2022/05/24 07:50:42;;;;;;;15.23;13.70;;;;;;;;;;5052420;28;20203;-74
2022/05/24 07:53:10;;;;;;;14.97;13.47;;;;;;;;;;5052869;28;20203;-75
2022/05/24 07:55:39;;;;;;;14.30;12.83;;;;;;;;;;5052258;28;20257;-74
2022/05/24 07:58:08;;;;;;;14.63;12.63;;;;;;;;;;5052593;28;20223;-74
2022/05/24 08:00:38;;;;;;;13.97;12.67;;;;;;;;;;5052563;28;20204;-75
2022/05/24 08:03:07;;;;;;;14.20;13.00;;;;;;;;;;5053591;28;20312;-74
2022/05/24 08:05:36;;;;;;;15.07;13.67;;;;;;;;;;5051932;28;20238;-75
2022/05/24 08:08:05;;;;;;;13.83;12.30;;;;;;;;;;5051877;28;20306;-74
2022/05/24 08:10:34;;;;;;;13.30;11.93;;;;;;;;;;5052246;28;20672;-75
2022/05/24 08:13:05;;;;;;;13.63;12.17;;;;;;;;;;5053054;28;20206;-76
2022/05/24 08:15:36;;;;;;;13.00;11.80;;;;;;;;;;5050214;28;20203;-75
2022/05/24 08:18:07;;;;;;;13.57;12.23;;;;;;;;;;5051998;28;20223;-75
2022/05/24 08:20:35;;;;;;;13.67;11.27;;;;;;;;;;5052454;28;20215;-74
2022/05/24 08:23:03;;;;;;;13.20;11.80;;;;;;;;;;5052627;28;20571;-76
2022/05/24 08:25:38;;;;;;;13.10;11.77;;;;;;;;;;5052038;28;20256;-76
2022/05/24 08:28:07;;;;;;;13.67;12.23;;;;;;;;;;5050579;28;20589;-76
2022/05/24 08:30:37;;;;;;;14.60;12.50;;;;;;;;;;5051656;28;20202;-77
2022/05/24 08:33:07;;;;;;;16.13;13.53;;;;;;;;;;5051912;28;20658;-77
2022/05/24 08:35:36;;;;;;;14.77;12.70;;;;;;;;;;5051825;28;20203;-73
2022/05/24 08:38:06;;;;;;;15.80;13.93;;;;;;;;;;5051797;28;20277;-74
2022/05/24 08:40:36;;;;;;;18.60;14.90;;;;;;;;;;5051910;28;20248;-75
2022/05/24 08:43:16;;;;;;;16.87;14.70;;;;;;;;;;5056049;28;20238;-75
2022/05/24 08:48:39;;;;;;;16.23;14.73;;;;;;;;;;5051241;28;20231;-75
2022/05/24 08:51:11;;;;;;;18.93;16.50;;;;;;;;;;5049930;28;20225;-74
2022/05/24 08:53:42;;;;;;;17.50;15.67;;;;;;;;;;5055981;28;20602;-74
2022/05/24 08:56:14;;;;;;;18.27;16.47;;;;;;;;;;5056147;28;20245;-75
2022/05/24 08:58:44;;;;;;;17.93;16.13;;;;;;;;;;5055966;28;20215;-73
2022/05/24 09:01:16;;;;;;;18.90;17.00;;;;;;;;;;5055828;28;20215;-75
2022/05/24 09:03:46;;;;;;;21.47;17.37;;;;;;;;;;5055881;28;20207;-75
2022/05/24 09:06:18;;;;;;;20.07;17.97;;;;;;;;;;5055588;28;20210;-74
2022/05/24 09:08:53;;;;;;;19.93;17.87;;;;;;;;;;5055186;28;20292;-74
2022/05/24 09:11:27;;;;;;;21.50;18.10;;;;;;;;;;5055616;28;20207;-75
2022/05/24 09:14:11;;;;;;;23.00;17.60;;;;;;;;;;5055663;28;20199;-73
2022/05/24 09:16:48;;;;;;;20.10;17.10;;;;;;;;;;5055212;28;20982;-73
2022/05/24 09:19:26;;;;;;;19.30;17.17;;;;;;;;;;5045433;28;20191;-74
2022/05/24 09:21:54;;;;;;;17.33;15.40;;;;;;;;;;5055143;28;20621;-74
2022/05/24 09:24:26;;;;;;;17.40;15.60;;;;;;;;;;5055437;28;20284;-75
2022/05/24 09:27:09;;;;;;;18.87;14.10;;;;;;;;;;5051613;28;20228;-75
2022/05/24 09:29:52;;;;;;;16.13;14.50;;;;;;;;;;5048700;28;20238;-74
2022/05/24 09:32:34;;;;;;;19.03;15.47;;;;;;;;;;5052920;28;20560;-73
2022/05/24 09:35:06;;;;;;;14.73;12.40;;;;;;;;;;5054994;28;20209;-75
2022/05/24 09:37:35;;;;;;;13.93;12.40;;;;;;;;;;5054263;28;20215;-75
2022/05/24 09:40:05;;;;;;;14.23;12.73;;;;;;;;;;5054110;28;20667;-74
2022/05/24 09:42:36;;;;;;;12.10;10.80;;;;;;;;;;5055318;28;20207;-74
2022/05/24 09:45:09;;;;;;;13.07;11.77;;;;;;;;;;5054059;28;20321;-73
2022/05/24 09:47:50;;;;;;;11.27;10.27;;;;;;;;;;5055183;28;20281;-74
2022/05/24 09:50:26;;;;;;;11.60;10.37;;;;;;;;;;5054601;28;20207;-74
2022/05/24 09:53:09;;;;;;;12.30;11.10;;;;;;;;;;5054992;28;20249;-74
2022/05/24 09:55:43;;;;;;;11.70;10.50;;;;;;;;;;5054699;28;20249;-75
2022/05/24 09:58:23;;;;;;;11.87;10.67;;;;;;;;;;5054006;28;20623;-74
2022/05/24 10:00:53;;;;;;;12.23;10.97;;;;;;;;;;5047487;28;20235;-72
2022/05/24 10:03:23;;;;;;;11.93;10.87;;;;;;;;;;5054721;28;20252;-73
2022/05/24 10:05:57;;;;;;;11.20;10.30;;;;;;;;;;5051327;28;20203;-73
2022/05/24 10:08:25;;;;;;;10.57;9.47;;;;;;;;;;5054024;28;20223;-73
2022/05/24 10:10:57;;;;;;;11.50;10.40;;;;;;;;;;5053915;28;20207;-76
2022/05/24 10:13:34;;;;;;;11.30;10.17;;;;;;;;;;5054861;28;20210;-72
2022/05/24 10:16:05;;;;;;;9.83;9.03;;;;;;;;;;5054161;28;20241;-73
2022/05/24 10:18:40;;;;;;;9.70;8.77;;;;;;;;;;5052154;28;20748;-74
2022/05/24 10:21:15;;;;;;;9.43;8.20;;;;;;;;;;5053370;28;20209;-73
2022/05/24 10:23:48;;;;;;;8.10;7.30;;;;;;;;;;5054335;28;20202;-72
2022/05/24 10:26:23;;;;;;;7.43;6.63;;;;;;;;;;5054119;28;20574;-72
2022/05/24 10:28:57;;;;;;;9.43;7.53;;;;;;;;;;5053503;28;20272;-72
2022/05/24 10:31:33;;;;;;;6.13;5.53;;;;;;;;;;5053742;28;20244;-74
2022/05/24 10:39:50;;;;;;;7.23;5.70;;;;;;;;;;5034304;28;20565;-73
2022/05/24 10:42:27;;;;;;;5.10;4.70;;;;;;;;;;5053739;28;20206;-72
2022/05/24 10:45:01;;;;;;;6.97;6.27;;;;;;;;;;5053131;28;20658;-72
2022/05/24 10:47:32;;;;;;;6.63;6.03;;;;;;;;;;5051557;28;20265;-73
2022/05/24 10:50:02;;;;;;;5.93;5.33;;;;;;;;;;5053445;28;20219;-73
2022/05/24 10:52:35;;;;;;;5.33;4.60;;;;;;;;;;5049792;28;20195;-72
2022/05/24 10:55:09;;;;;;;5.07;4.40;;;;;;;;;;5041251;28;20313;-73
2022/05/24 10:57:41;;;;;;;5.07;4.40;;;;;;;;;;5052998;28;20234;-72
2022/05/24 11:00:12;;;;;;;4.87;4.47;;;;;;;;;;5052807;28;20203;-72
2022/05/24 11:02:43;;;;;;;5.30;4.27;;;;;;;;;;5053377;28;20294;-72
2022/05/24 11:05:16;;;;;;;4.40;4.00;;;;;;;;;;5052454;28;20207;-73
2022/05/24 11:07:48;;;;;;;5.23;3.83;;;;;;;;;;5051345;28;20231;-73
2022/05/24 11:10:22;;;;;;;3.97;3.50;;;;;;;;;;5051438;28;20223;-74
2022/05/24 11:12:51;;;;;;;5.17;3.60;;;;;;;;;;5048685;28;20203;-74
2022/05/24 11:15:23;;;;;;;4.63;3.60;;;;;;;;;;5047863;28;20207;-72
2022/05/24 11:17:52;;;;;;;4.10;3.80;;;;;;;;;;5048307;28;20234;-72
2022/05/24 11:20:35;;;;;;;4.63;3.73;;;;;;;;;;5048667;28;20214;-73
2022/05/24 11:23:08;;;;;;;4.03;3.63;;;;;;;;;;5045594;28;20218;-72
2022/05/24 11:25:40;;;;;;;3.90;3.50;;;;;;;;;;5050190;28;20199;-74
2022/05/24 11:28:18;;;;;;;3.73;3.33;;;;;;;;;;5050046;28;20566;-74
2022/05/24 11:30:47;;;;;;;4.03;3.53;;;;;;;;;;5049926;28;20203;-72
2022/05/24 11:33:17;;;;;;;6.23;4.20;;;;;;;;;;5051747;28;20203;-72
2022/05/24 11:35:47;;;;;;;5.37;3.90;;;;;;;;;;5048285;28;20609;-72
2022/05/24 11:38:18;;;;;;;5.23;4.30;;;;;;;;;;5047190;28;20223;-72
2022/05/24 11:41:01;;;;;;;4.27;3.90;;;;;;;;;;5050253;28;20253;-72
2022/05/24 11:43:55;;;;;;;4.43;3.70;;;;;;;;;;5046972;28;20540;-71
2022/05/24 11:46:39;;;;;;;3.50;3.20;;;;;;;;;;5051513;28;20215;-73
2022/05/24 11:49:10;;;;;;;5.27;3.67;;;;;;;;;;5051745;28;20664;-72
2022/05/24 11:51:41;;;;;;;3.43;3.13;;;;;;;;;;5052038;28;20213;-74
2022/05/24 11:54:24;;;;;;;4.60;3.10;;;;;;;;;;5052991;28;20203;-71
2022/05/24 11:56:55;;;;;;;3.58;2.70;;;;;;;;;;5049858;28;20228;-72
2022/05/24 11:59:38;;;;;;;2.10;2.00;;;;;;;;;;5048407;28;20191;-72
2022/05/24 12:08:25;;;;;;;4.30;2.70;;;;;;;;;;5046028;28;20268;-71
2022/05/24 12:10:55;;;;;;;2.60;2.40;;;;;;;;;;5041630;28;20191;-72
2022/05/24 12:13:41;;;;;;;2.60;2.50;;;;;;;;;;5043094;28;20234;-73
2022/05/24 12:16:24;;;;;;;3.13;2.83;;;;;;;;;;5046816;28;20214;-72
2022/05/24 12:18:57;;;;;;;2.97;2.70;;;;;;;;;;5051853;28;20306;-72
2022/05/24 12:21:53;;;;;;;4.18;3.25;;;;;;;;;;5053503;28;20207;-74
2022/05/24 12:24:39;;;;;;;4.07;3.55;;;;;;;;;;5017734;28;20203;-73
2022/05/24 12:27:11;;;;;;;3.80;3.50;;;;;;;;;;5040591;28;20561;-71
2022/05/24 12:29:41;;;;;;;3.83;3.40;;;;;;;;;;5052150;28;20215;-72
2022/05/24 12:32:10;;;;;;;5.40;3.60;;;;;;;;;;5054411;28;20261;-73
2022/05/24 12:34:38;;;;;;;3.60;3.30;;;;;;;;;;5051104;28;20211;-73
2022/05/24 12:37:11;;;;;;;3.53;3.20;;;;;;;;;;5054736;28;20298;-72
2022/05/24 12:39:39;;;;;;;3.43;3.13;;;;;;;;;;5056215;28;20635;-71
2022/05/24 12:42:09;;;;;;;4.33;3.60;;;;;;;;;;5054407;28;20701;-72
2022/05/24 12:44:45;;;;;;;3.97;2.90;;;;;;;;;;5053337;28;20209;-71
2022/05/24 12:47:16;;;;;;;4.30;2.90;;;;;;;;;;5049469;28;20705;-72
2022/05/24 12:49:55;;;;;;;3.13;2.80;;;;;;;;;;5050428;28;20227;-72
2022/05/24 12:52:25;;;;;;;3.53;2.60;;;;;;;;;;5053239;28;20202;-72
2022/05/24 12:54:56;;;;;;;4.50;3.00;;;;;;;;;;5046800;28;20192;-72
2022/05/24 12:57:28;;;;;;;3.30;2.50;;;;;;;;;;5050923;28;20231;-70
2022/05/24 12:59:59;;;;;;;2.90;2.70;;;;;;;;;;5048353;28;20544;-72
2022/05/24 13:02:30;;;;;;;4.70;2.67;;;;;;;;;;5052127;28;20207;-72
2022/05/24 13:05:00;;;;;;;2.70;2.50;;;;;;;;;;5044421;28;20286;-72
2022/05/24 13:07:39;;;;;;;4.55;2.50;;;;;;;;;;5051147;28;20223;-71
2022/05/24 13:10:12;;;;;;;4.70;2.60;;;;;;;;;;5058222;28;20241;-72
2022/05/24 13:12:43;;;;;;;4.00;2.42;;;;;;;;;;5051582;28;20205;-73
2022/05/24 13:15:17;;;;;;;3.67;2.30;;;;;;;;;;5048233;28;20258;-72
2022/05/24 13:17:46;;;;;;;4.00;2.10;;;;;;;;;;5052044;28;20235;-72
2022/05/24 13:20:26;;;;;;;2.83;2.25;;;;;;;;;;5054626;28;20214;-71
2022/05/24 13:22:56;;;;;;;4.28;2.17;;;;;;;;;;5052499;28;20215;-72
2022/05/24 13:25:26;;;;;;;4.10;2.55;;;;;;;;;;5052419;28;20199;-72
2022/05/24 13:27:58;;;;;;;4.15;1.98;;;;;;;;;;5052319;28;20219;-74
2022/05/24 13:33:35;;;;;;;4.00;2.10;;;;;;;;;;5053636;28;20627;-71
2022/05/24 13:36:19;;;;;;;3.80;2.50;;;;;;;;;;5051765;28;20203;-73
2022/05/24 13:38:49;;;;;;;4.88;2.50;;;;;;;;;;5047695;28;20223;-72
2022/05/24 13:41:27;;;;;;;3.20;2.50;;;;;;;;;;5044405;28;20261;-73
2022/05/24 13:44:07;;;;;;;5.28;2.80;;;;;;;;;;5054952;28;20207;-72
2022/05/24 13:46:49;;;;;;;4.55;3.17;;;;;;;;;;5052000;28;20697;-73
2022/05/24 13:49:38;;;;;;;3.08;2.78;;;;;;;;;;5044499;28;20251;-73
2022/05/24 13:52:20;;;;;;;4.25;3.20;;;;;;;;;;5053070;28;21491;-72
2022/05/24 13:54:50;;;;;;;5.80;2.95;;;;;;;;;;5047368;28;20206;-73
2022/05/24 13:57:22;;;;;;;3.17;2.83;;;;;;;;;;5054643;28;20701;-73
2022/05/24 14:00:03;;;;;;;2.92;2.63;;;;;;;;;;5053366;28;20693;-73
2022/05/24 14:02:33;;;;;;;3.60;2.58;;;;;;;;;;5052914;28;20650;-72
2022/05/24 14:05:02;;;;;;;3.30;2.55;;;;;;;;;;5051403;28;20199;-72
2022/05/24 14:07:31;;;;;;;3.90;2.50;;;;;;;;;;5050916;28;20219;-73
2022/05/24 14:10:00;;;;;;;2.85;2.25;;;;;;;;;;5054082;28;20222;-73
2022/05/24 14:12:28;;;;;;;4.15;2.20;;;;;;;;;;5054862;28;20211;-73
2022/05/24 14:14:56;;;;;;;3.05;2.20;;;;;;;;;;5043801;28;20650;-74
2022/05/24 14:17:25;;;;;;;3.80;2.75;;;;;;;;;;5054063;28;20224;-73
2022/05/24 14:19:55;;;;;;;3.30;2.70;;;;;;;;;;5052068;28;20199;-72
2022/05/24 14:22:25;;;;;;;4.25;2.55;;;;;;;;;;5053612;28;20214;-74
2022/05/24 14:24:53;;;;;;;5.70;2.50;;;;;;;;;;5053082;28;20210;-73
2022/05/24 14:27:21;;;;;;;4.28;2.67;;;;;;;;;;5053964;28;20314;-72
2022/05/24 14:29:50;;;;;;;4.55;2.50;;;;;;;;;;5053512;28;20711;-73
2022/05/24 14:32:19;;;;;;;6.03;3.10;;;;;;;;;;5049716;28;20234;-73
2022/05/24 14:34:48;;;;;;;3.22;2.70;;;;;;;;;;5050652;28;20624;-71
2022/05/24 14:37:20;;;;;;;4.40;2.70;;;;;;;;;;5051327;28;20219;-71
2022/05/24 14:39:50;;;;;;;2.97;2.35;;;;;;;;;;5045337;28;20295;-72
2022/05/24 14:42:20;;;;;;;2.67;2.38;;;;;;;;;;5053239;28;20828;-72
2022/05/24 14:44:49;;;;;;;3.63;2.50;;;;;;;;;;5048503;28;20656;-75
2022/05/24 14:47:17;;;;;;;2.80;2.10;;;;;;;;;;5044906;28;20223;-71
2022/05/24 14:49:46;;;;;;;3.40;2.17;;;;;;;;;;5050821;28;20214;-72
2022/05/24 14:52:16;;;;;;;2.97;2.40;;;;;;;;;;5050465;28;20255;-73
2022/05/24 14:54:49;;;;;;;3.25;1.85;;;;;;;;;;5047065;28;20211;-74
2022/05/24 14:57:18;;;;;;;2.58;1.98;;;;;;;;;;5051718;28;20227;-73
2022/05/24 14:59:49;;;;;;;4.00;2.60;;;;;;;;;;5052782;28;20207;-73
2022/05/24 15:02:19;;;;;;;5.85;3.40;;;;;;;;;;5051621;28;20210;-75
2022/05/24 15:04:47;;;;;;;5.30;3.63;;;;;;;;;;5050658;28;20208;-72
2022/05/24 15:15:52;;;;;;;6.97;4.68;;;;;;;;;;4984359;28;20209;-73
2022/05/24 15:18:21;;;;;;;6.13;5.53;;;;;;;;;;4990029;28;20221;-72
2022/05/24 15:20:49;;;;;;;5.82;5.28;;;;;;;;;;5019595;28;20191;-72
2022/05/24 15:23:20;;;;;;;6.20;5.20;;;;;;;;;;5050969;28;20203;-73
2022/05/24 15:25:52;;;;;;;6.90;6.22;;;;;;;;;;5044520;28;20721;-73
2022/05/24 15:28:22;;;;;;;6.53;5.88;;;;;;;;;;5051201;28;20702;-72
2022/05/24 15:30:50;;;;;;;6.68;6.05;;;;;;;;;;5048575;28;20694;-73
2022/05/24 15:33:18;;;;;;;6.82;6.22;;;;;;;;;;5045490;28;20258;-72
2022/05/24 15:35:47;;;;;;;8.25;6.28;;;;;;;;;;5049558;28;20211;-73
2022/05/24 15:38:17;;;;;;;7.00;6.30;;;;;;;;;;5049271;28;20679;-73
2022/05/24 15:40:46;;;;;;;7.53;6.78;;;;;;;;;;5045324;28;20195;-73
2022/05/24 15:43:16;;;;;;;6.80;6.15;;;;;;;;;;5046814;28;20284;-73
2022/05/24 15:45:44;;;;;;;8.52;7.88;;;;;;;;;;5047106;28;20211;-73
2022/05/24 15:48:14;;;;;;;8.63;7.93;;;;;;;;;;5046608;28;20252;-72
2022/05/24 15:50:43;;;;;;;9.65;8.48;;;;;;;;;;5049585;28;20227;-72
2022/05/24 15:53:11;;;;;;;9.68;8.88;;;;;;;;;;5050562;28;20199;-73
2022/05/24 15:55:40;;;;;;;9.18;8.23;;;;;;;;;;5050171;28;20329;-72
2022/05/24 15:58:25;;;;;;;9.63;8.85;;;;;;;;;;5049006;28;20333;-72